Time;durP1;ratioP1;P1;durP2;ratioP2;P2;SDS_P1;SDS_P2;PMS_P1;PMS_P2;Temp;Humidity;BMP_temperature;BMP_pressure;BME280_temperature;BME280_humidity;BME280_pressure;Samples;Min_cycle;Max_cycle;Signal;HPM_P1;HPM_P2
2022/08/25 00:00:40;;;;;;;12.50;11.30;;;20.50;99.90;;;;;;5062687;28;20583;-93
2022/08/25 00:03:06;;;;;;;13.13;11.75;;;20.50;99.90;;;;;;5079970;28;20082;-93
2022/08/25 00:05:32;;;;;;;12.65;11.35;;;20.40;99.90;;;;;;5096351;28;20130;-92
2022/08/25 00:07:59;;;;;;;12.48;11.23;;;20.40;99.90;;;;;;5068067;28;20079;-92
2022/08/25 00:10:24;;;;;;;12.32;11.13;;;20.40;99.90;;;;;;5095566;28;20103;-92
2022/08/25 00:12:50;;;;;;;13.48;12.07;;;20.40;99.90;;;;;;5098689;28;20044;-91
2022/08/25 00:15:16;;;;;;;13.60;12.02;;;20.30;99.90;;;;;;5096401;28;20063;-92
2022/08/25 00:17:41;;;;;;;12.88;11.70;;;20.30;99.90;;;;;;5094795;28;20044;-92
2022/08/25 00:20:08;;;;;;;13.30;11.95;;;20.20;99.90;;;;;;5080824;28;20051;-92
2022/08/25 00:22:34;;;;;;;15.15;10.73;;;20.30;99.90;;;;;;5089529;28;20054;-91
2022/08/25 00:25:00;;;;;;;13.32;11.25;;;20.30;99.90;;;;;;5101702;28;20036;-92
2022/08/25 00:27:26;;;;;;;13.43;11.13;;;20.20;99.90;;;;;;5052292;28;20058;-94
2022/08/25 00:29:52;;;;;;;11.73;10.60;;;20.10;99.90;;;;;;5097199;28;20023;-90
2022/08/25 00:32:18;;;;;;;12.48;11.07;;;20.20;99.90;;;;;;5087450;27;20019;-89
2022/08/25 00:34:43;;;;;;;11.32;10.20;;;20.10;99.90;;;;;;5087306;27;20034;-89
2022/08/25 00:37:09;;;;;;;14.20;10.63;;;20.10;99.90;;;;;;5077277;28;20122;-92
2022/08/25 00:39:35;;;;;;;12.15;10.88;;;20.10;99.90;;;;;;5049495;28;20047;-93
2022/08/25 00:42:02;;;;;;;11.48;10.48;;;20.00;99.90;;;;;;5067087;28;20111;-92
2022/08/25 00:44:28;;;;;;;12.55;9.88;;;20.10;99.90;;;;;;5086545;27;20039;-88
2022/08/25 00:46:56;;;;;;;11.60;9.95;;;20.00;99.90;;;;;;5087325;27;20040;-89
2022/08/25 00:49:35;;;;;;;12.93;11.07;;;20.00;99.90;;;;;;5097544;28;20106;-92
2022/08/25 00:52:09;;;;;;;14.85;10.50;;;19.90;99.90;;;;;;5062960;28;20044;-93
2022/08/25 00:54:51;;;;;;;11.63;9.55;;;19.90;99.90;;;;;;5045494;28;20069;-91
2022/08/25 00:57:28;;;;;;;10.88;9.18;;;19.90;99.90;;;;;;5077359;28;20113;-91
2022/08/25 00:59:54;;;;;;;11.10;9.18;;;19.90;99.90;;;;;;5088517;27;20057;-89
2022/08/25 01:02:20;;;;;;;11.38;8.60;;;19.90;99.90;;;;;;5070000;27;20047;-90
2022/08/25 01:04:46;;;;;;;12.05;9.25;;;20.00;99.90;;;;;;5082669;28;20040;-92
2022/08/25 01:07:12;;;;;;;9.85;8.85;;;20.00;99.90;;;;;;5078966;28;20051;-92
2022/08/25 01:09:37;;;;;;;9.60;7.28;;;20.00;99.90;;;;;;5044574;28;20043;-92
2022/08/25 01:12:04;;;;;;;10.20;7.82;;;20.10;99.90;;;;;;5041265;28;20055;-92
2022/08/25 01:14:30;;;;;;;10.00;8.20;;;20.10;99.90;;;;;;5074458;28;20059;-91
2022/08/25 01:16:57;;;;;;;9.52;7.53;;;20.10;99.90;;;;;;5041677;28;20040;-91
2022/08/25 01:19:24;;;;;;;8.60;7.80;;;20.10;99.90;;;;;;5057977;28;20122;-91
2022/08/25 01:21:50;;;;;;;12.48;8.20;;;20.00;99.90;;;;;;5057588;28;20112;-92
2022/08/25 01:24:25;;;;;;;9.98;8.60;;;20.00;99.90;;;;;;5057105;28;20131;-92
2022/08/25 01:26:50;;;;;;;10.90;9.00;;;20.00;99.90;;;;;;5065364;28;20134;-93
2022/08/25 01:29:24;;;;;;;9.30;8.25;;;20.00;99.90;;;;;;5089252;28;20078;-90
2022/08/25 01:31:56;;;;;;;9.13;8.25;;;19.90;99.90;;;;;;5083927;28;20491;-91
2022/08/25 01:34:22;;;;;;;9.45;8.43;;;19.90;99.90;;;;;;5066185;28;20040;-91
2022/08/25 01:36:48;;;;;;;10.65;8.23;;;19.80;99.90;;;;;;5065438;28;20048;-91
2022/08/25 01:39:13;;;;;;;11.73;9.10;;;19.80;99.90;;;;;;5100310;28;20165;-92
2022/08/25 01:41:39;;;;;;;9.57;8.68;;;19.70;99.90;;;;;;5050807;28;20123;-91
2022/08/25 01:44:04;;;;;;;9.13;8.07;;;19.70;99.90;;;;;;5101872;28;20110;-91
2022/08/25 01:46:30;;;;;;;9.52;8.25;;;19.60;99.90;;;;;;5069639;28;20040;-89
2022/08/25 01:48:56;;;;;;;10.82;8.18;;;19.60;99.90;;;;;;5057805;28;20499;-92
2022/08/25 01:51:23;;;;;;;11.02;8.82;;;19.50;99.90;;;;;;5073719;28;20036;-93
2022/08/25 01:53:49;;;;;;;10.63;8.60;;;19.50;99.90;;;;;;5089827;28;20055;-91
2022/08/25 01:56:15;;;;;;;12.65;8.48;;;19.50;99.90;;;;;;5054874;28;20106;-90
2022/08/25 01:58:46;;;;;;;8.93;7.80;;;19.40;99.90;;;;;;5085804;28;20056;-91
2022/08/25 02:01:20;;;;;;;9.65;8.75;;;19.40;99.90;;;;;;5053955;28;20564;-92
2022/08/25 02:03:48;;;;;;;12.07;8.50;;;19.30;99.90;;;;;;5047532;28;20074;-91
2022/08/25 02:06:15;;;;;;;13.10;8.48;;;19.30;99.90;;;;;;5064193;28;20071;-93
2022/08/25 02:08:41;;;;;;;9.02;8.13;;;19.20;99.90;;;;;;5063894;28;20430;-92
2022/08/25 02:11:11;;;;;;;9.80;8.90;;;19.20;99.90;;;;;;5081439;28;20048;-92
2022/08/25 02:13:37;;;;;;;9.23;8.13;;;19.20;99.90;;;;;;5064822;28;20051;-91
2022/08/25 02:16:03;;;;;;;10.43;8.20;;;19.10;99.90;;;;;;5050366;28;20040;-93
2022/08/25 02:18:29;;;;;;;11.80;7.50;;;19.10;99.90;;;;;;5051452;28;20059;-92
2022/08/25 02:20:54;;;;;;;10.10;7.65;;;19.10;99.90;;;;;;5053472;28;20078;-92
2022/08/25 02:23:20;;;;;;;10.68;8.00;;;19.10;99.90;;;;;;5086612;28;20138;-92
2022/08/25 02:25:46;;;;;;;8.65;7.75;;;19.00;99.90;;;;;;5102243;28;20146;-92
2022/08/25 02:28:12;;;;;;;9.70;8.27;;;19.00;99.90;;;;;;5068230;28;20048;-92
2022/08/25 02:30:38;;;;;;;8.55;7.63;;;19.10;99.90;;;;;;5082439;28;20132;-92
2022/08/25 02:33:03;;;;;;;7.90;6.95;;;19.00;99.90;;;;;;5047021;28;20079;-92
2022/08/25 02:35:29;;;;;;;7.47;6.68;;;19.00;99.90;;;;;;5077910;28;20040;-93
2022/08/25 02:37:55;;;;;;;8.35;6.32;;;19.00;99.90;;;;;;5094353;28;20686;-93
2022/08/25 02:40:21;;;;;;;12.57;6.20;;;19.10;99.90;;;;;;5077098;28;20126;-93
2022/08/25 02:42:50;;;;;;;7.70;6.43;;;19.10;99.90;;;;;;5060825;28;20050;-92
2022/08/25 02:45:17;;;;;;;6.93;6.20;;;19.10;99.90;;;;;;5061371;28;20048;-93
2022/08/25 02:47:43;;;;;;;7.68;5.97;;;19.20;99.90;;;;;;5078254;28;20150;-94
2022/08/25 02:50:09;;;;;;;8.40;5.90;;;19.20;99.90;;;;;;5077384;28;20056;-92
2022/08/25 02:52:35;;;;;;;7.20;5.88;;;19.30;99.90;;;;;;5044027;28;20058;-93
2022/08/25 02:55:03;;;;;;;7.07;5.50;;;19.30;99.90;;;;;;5045656;28;20044;-94
2022/08/25 02:57:32;;;;;;;5.60;4.97;;;19.30;99.90;;;;;;5063165;28;20044;-94
2022/08/25 02:59:59;;;;;;;6.95;5.10;;;19.40;99.90;;;;;;5095657;28;20056;-94
2022/08/25 03:02:25;;;;;;;8.63;5.70;;;19.40;99.90;;;;;;5095291;28;20048;-92
2022/08/25 03:04:51;;;;;;;6.28;5.22;;;19.30;99.90;;;;;;5062464;28;20048;-95
2022/08/25 03:07:20;;;;;;;6.97;4.85;;;19.40;99.90;;;;;;5079364;28;20086;-94
2022/08/25 03:09:46;;;;;;;7.90;5.68;;;19.40;99.90;;;;;;5078486;28;20052;-93
2022/08/25 03:12:12;;;;;;;8.27;5.00;;;19.40;99.90;;;;;;5079947;28;20067;-93
2022/08/25 03:14:38;;;;;;;6.53;5.28;;;19.40;99.90;;;;;;5080148;28;20048;-88
2022/08/25 03:17:07;;;;;;;8.50;5.13;;;19.30;99.90;;;;;;5095053;28;20056;-91
2022/08/25 03:19:33;;;;;;;8.98;5.32;;;19.30;99.90;;;;;;5080291;28;20064;-93
2022/08/25 03:21:58;;;;;;;6.57;5.00;;;19.30;99.90;;;;;;5093677;28;20044;-92
2022/08/25 03:24:24;;;;;;;7.45;5.28;;;19.30;99.90;;;;;;5094160;28;20048;-93
2022/08/25 03:26:53;;;;;;;7.60;5.45;;;19.20;99.90;;;;;;5056132;28;20090;-95
2022/08/25 03:29:26;;;;;;;6.85;5.38;;;19.20;99.90;;;;;;5079960;28;20048;-94
2022/08/25 03:31:53;;;;;;;;;;;19.20;99.90;;;;;;5045492;28;20086;-93
2022/08/25 03:34:21;;;;;;;7.20;5.18;;;19.10;99.90;;;;;;5078184;28;19931;-94
2022/08/25 03:36:48;;;;;;;6.10;5.45;;;19.10;99.90;;;;;;5060914;28;20410;-96
2022/08/25 03:39:14;;;;;;;10.43;5.70;;;19.10;99.90;;;;;;5078507;28;20062;-95
2022/08/25 03:41:40;;;;;;;6.45;5.38;;;19.00;99.90;;;;;;5095679;28;20095;-92
2022/08/25 03:44:06;;;;;;;6.40;5.72;;;19.10;99.90;;;;;;5077126;28;20046;-93
2022/08/25 03:46:43;;;;;;;8.48;5.65;;;19.00;99.90;;;;;;5076370;28;20055;-94
2022/08/25 03:49:12;;;;;;;6.93;5.45;;;19.00;99.90;;;;;;5042201;28;20485;-92
2022/08/25 03:51:49;;;;;;;10.68;6.20;;;18.90;99.90;;;;;;5060928;28;20044;-93
2022/08/25 03:54:16;;;;;;;8.50;6.13;;;18.90;99.90;;;;;;5077115;28;20051;-93
2022/08/25 03:56:42;;;;;;;6.00;5.45;;;18.90;99.90;;;;;;5076217;28;20058;-94
2022/08/25 03:59:08;;;;;;;6.43;5.80;;;18.80;99.90;;;;;;5059125;28;20138;-93
2022/08/25 04:01:38;;;;;;;9.48;6.45;;;18.70;99.90;;;;;;5059538;28;20063;-89
2022/08/25 04:04:04;;;;;;;7.93;5.72;;;18.60;99.90;;;;;;5076225;28;20075;-92
2022/08/25 04:06:30;;;;;;;8.68;6.78;;;18.50;99.90;;;;;;5059576;28;20476;-93
2022/08/25 04:08:57;;;;;;;8.02;6.97;;;18.50;99.90;;;;;;5059287;28;20054;-92
2022/08/25 04:11:26;;;;;;;9.95;7.32;;;18.40;99.90;;;;;;5075614;28;20079;-93
2022/08/25 04:13:52;;;;;;;7.47;6.65;;;18.30;99.90;;;;;;5059358;28;20044;-92
2022/08/25 04:16:20;;;;;;;8.70;6.75;;;18.20;99.90;;;;;;5059684;28;20399;-91
2022/08/25 04:18:46;;;;;;;8.57;6.65;;;18.10;99.90;;;;;;5059113;28;20052;-93
2022/08/25 04:21:12;;;;;;;10.80;7.35;;;18.00;99.90;;;;;;5042694;28;20040;-93
2022/08/25 04:23:39;;;;;;;8.45;7.50;;;17.50;99.90;;;;;;5043520;28;20054;-93
2022/08/25 04:26:18;;;;;;;9.43;7.20;;;17.80;99.90;;;;;;5043214;28;20051;-92
2022/08/25 04:28:44;;;;;;;9.75;7.22;;;17.80;99.90;;;;;;5060095;28;20048;-92
2022/08/25 04:31:10;;;;;;;8.05;7.15;;;17.80;99.90;;;;;;5074937;28;20048;-92
2022/08/25 04:33:37;;;;;;;8.60;7.70;;;17.70;99.90;;;;;;5060995;28;20495;-93
2022/08/25 04:36:03;;;;;;;9.10;7.20;;;17.70;99.90;;;;;;5078112;28;20105;-92
2022/08/25 04:38:29;;;;;;;7.90;7.10;;;17.70;99.90;;;;;;5045721;28;20058;-93
2022/08/25 04:40:59;;;;;;;8.75;7.85;;;17.80;99.90;;;;;;5094181;28;20111;-88
2022/08/25 04:43:24;;;;;;;14.32;7.32;;;17.70;99.90;;;;;;5059261;28;20131;-93
2022/08/25 04:45:51;;;;;;;9.23;7.78;;;17.70;99.90;;;;;;5059626;28;20106;-88
2022/08/25 04:48:16;;;;;;;9.60;7.32;;;17.70;99.90;;;;;;5042920;28;20048;-92
2022/08/25 04:50:43;;;;;;;8.98;7.13;;;17.70;99.90;;;;;;5075068;28;20054;-93
2022/08/25 04:53:09;;;;;;;10.57;7.97;;;17.60;99.90;;;;;;5075075;28;20066;-92
2022/08/25 04:55:45;;;;;;;9.43;7.28;;;17.70;99.90;;;;;;5058987;28;20140;-93
2022/08/25 04:58:11;;;;;;;7.50;6.80;;;17.70;99.90;;;;;;5075208;28;20048;-91
2022/08/25 05:00:37;;;;;;;8.18;6.68;;;17.80;99.90;;;;;;5059839;28;20055;-92
2022/08/25 05:03:03;;;;;;;9.13;7.30;;;18.10;99.90;;;;;;5058301;28;20080;-92
2022/08/25 05:05:29;;;;;;;11.63;7.25;;;18.50;99.90;;;;;;5076380;28;20048;-94
2022/08/25 05:07:55;;;;;;;10.20;6.80;;;18.70;99.90;;;;;;5076129;28;20104;-92
2022/08/25 05:10:21;;;;;;;7.72;6.70;;;18.80;99.90;;;;;;5059210;28;20123;-91
2022/08/25 05:12:47;;;;;;;10.65;6.85;;;18.70;99.90;;;;;;5063009;28;20112;-92
2022/08/25 05:17:56;;;;;;;7.47;6.63;;;18.60;99.90;;;;;;5082284;28;20055;-93
2022/08/25 05:20:23;;;;;;;12.82;7.65;;;18.70;99.90;;;;;;5078524;28;20047;-93
2022/08/25 05:22:48;;;;;;;9.70;6.70;;;19.10;99.90;;;;;;5061372;28;20134;-93
2022/08/25 05:25:14;;;;;;;6.97;6.28;;;19.70;99.90;;;;;;5062257;28;20491;-94
2022/08/25 05:27:41;;;;;;;9.93;5.88;;;20.20;99.90;;;;;;5061640;28;20054;-94
2022/08/25 05:30:08;;;;;;;9.63;5.65;;;20.60;99.90;;;;;;5063824;28;20043;-95
2022/08/25 05:32:36;;;;;;;6.68;5.90;;;21.00;99.90;;;;;;5064047;28;20040;-95
2022/08/25 05:35:03;;;;;;;7.05;5.43;;;21.60;99.90;;;;;;5079448;28;20109;-93
2022/08/25 05:37:28;;;;;;;9.10;5.88;;;22.10;99.90;;;;;;5061828;28;20187;-93
2022/08/25 05:39:54;;;;;;;7.93;6.03;;;22.20;99.90;;;;;;5081714;28;20398;-96
2022/08/25 05:42:22;;;;;;;12.35;6.07;;;22.50;99.90;;;;;;5101818;28;20100;-96
2022/08/25 05:44:48;;;;;;;10.60;6.47;;;22.70;99.90;;;;;;5065400;28;20048;-93
2022/08/25 05:47:14;;;;;;;10.65;6.68;;;23.00;99.90;;;;;;5062998;28;20092;-94
2022/08/25 05:49:39;;;;;;;9.25;6.22;;;23.20;99.90;;;;;;5069096;28;20510;-94
2022/08/25 05:52:05;;;;;;;8.65;5.90;;;23.40;99.90;;;;;;5062988;28;20040;-94
2022/08/25 05:54:31;;;;;;;9.75;6.20;;;23.80;99.90;;;;;;5079349;28;20082;-94
2022/08/25 05:56:57;;;;;;;8.05;5.95;;;23.80;99.90;;;;;;5062808;28;20043;-94
2022/08/25 05:59:23;;;;;;;9.07;6.07;;;23.90;99.90;;;;;;5046233;28;20517;-95
2022/08/25 06:04:33;;;;;;;10.27;6.43;;;24.70;99.90;;;;;;5080519;28;20077;-93
2022/08/25 06:06:59;;;;;;;7.75;5.97;;;24.70;99.90;;;;;;5079624;28;20047;-96
2022/08/25 06:09:25;;;;;;;8.18;5.63;;;25.30;99.90;;;;;;5063741;28;20044;-95
2022/08/25 06:11:51;;;;;;;9.38;6.03;;;25.40;99.90;;;;;;5066941;28;20078;-94
2022/08/25 06:14:17;;;;;;;6.43;5.68;;;25.70;99.90;;;;;;5066727;28;20044;-94
2022/08/25 06:16:47;;;;;;;6.00;5.40;;;25.90;99.90;;;;;;5073697;28;20043;-93
2022/08/25 06:19:13;;;;;;;7.85;5.18;;;26.10;99.90;;;;;;5105608;28;20073;-91
2022/08/25 06:21:39;;;;;;;8.38;5.68;;;26.20;99.90;;;;;;5098543;28;20051;-89
2022/08/25 06:24:06;;;;;;;7.72;5.97;;;26.40;99.90;;;;;;5088930;28;20043;-93
2022/08/25 06:26:32;;;;;;;8.95;5.88;;;26.60;99.90;;;;;;5068387;28;20104;-90
2022/08/25 06:29:00;;;;;;;6.90;5.60;;;26.60;99.90;;;;;;5084831;28;20055;-92
2022/08/25 06:31:29;;;;;;;9.73;5.60;;;26.60;99.90;;;;;;5122735;27;20049;-94
2022/08/25 06:33:58;;;;;;;7.63;5.70;;;27.00;99.90;;;;;;5088869;27;20125;-93
2022/08/25 06:36:23;;;;;;;6.57;5.50;;;27.20;99.90;;;;;;5105335;27;20085;-93
2022/08/25 06:38:54;;;;;;;6.38;5.70;;;27.30;99.90;;;;;;5066592;28;20047;-95
2022/08/25 06:41:29;;;;;;;6.97;5.32;;;27.70;99.90;;;;;;5054689;28;20040;-92
2022/08/25 06:43:58;;;;;;;7.05;5.90;;;27.90;99.70;;;;;;5052417;28;20058;-93
2022/08/25 06:46:35;;;;;;;10.45;5.63;;;27.90;99.60;;;;;;5062953;28;20043;-94
2022/08/25 06:49:03;;;;;;;6.70;5.13;;;28.10;99.50;;;;;;5049592;28;20075;-86
2022/08/25 06:51:31;;;;;;;8.15;5.93;;;28.50;99.50;;;;;;5036437;28;20475;-88
2022/08/25 06:53:57;;;;;;;7.50;5.53;;;28.10;99.40;;;;;;5049936;28;20105;-88
2022/08/25 06:56:34;;;;;;;6.53;5.85;;;28.30;99.40;;;;;;5028270;28;20143;-88
2022/08/25 06:59:04;;;;;;;7.25;6.13;;;28.40;99.10;;;;;;5031836;28;20395;-89
2022/08/25 07:01:32;;;;;;;8.30;5.90;;;28.60;98.90;;;;;;5045094;28;20056;-89
2022/08/25 07:04:01;;;;;;;9.05;6.40;;;30.00;99.30;;;;;;5027491;28;20552;-91
2022/08/25 07:06:35;;;;;;;9.82;6.32;;;28.20;98.90;;;;;;5043623;28;20062;-89
2022/08/25 07:09:11;;;;;;;8.25;6.32;;;28.60;99.20;;;;;;5066290;28;20058;-92
2022/08/25 07:11:40;;;;;;;8.80;6.20;;;28.60;98.60;;;;;;5049317;28;20135;-93
2022/08/25 07:14:09;;;;;;;7.63;6.07;;;28.70;98.50;;;;;;5064387;28;20204;-91
2022/08/25 07:16:48;;;;;;;7.78;5.72;;;27.90;98.50;;;;;;5049261;28;20140;-94
2022/08/25 07:19:19;;;;;;;10.40;6.15;;;28.20;98.90;;;;;;5049607;28;20063;-91
2022/08/25 07:21:48;;;;;;;8.73;5.93;;;28.50;98.30;;;;;;5068055;28;20593;-94
2022/08/25 07:24:16;;;;;;;7.60;5.93;;;29.30;98.80;;;;;;5067275;28;20050;-94
2022/08/25 07:26:42;;;;;;;6.63;5.80;;;29.70;98.60;;;;;;5052030;28;20047;-93
2022/08/25 07:29:14;;;;;;;7.18;5.47;;;29.90;97.50;;;;;;5065132;28;20075;-94
2022/08/25 07:31:42;;;;;;;8.15;5.85;;;30.20;97.60;;;;;;5049468;28;20475;-94
2022/08/25 07:36:58;;;;;;;7.90;6.07;;;28.40;97.80;;;;;;5074493;28;20066;-95
2022/08/25 07:39:26;;;;;;;6.55;5.32;;;29.70;98.30;;;;;;5069384;28;20055;-94
2022/08/25 07:41:54;;;;;;;8.07;5.90;;;29.50;98.40;;;;;;5068750;28;20082;-93
2022/08/25 07:44:52;;;;;;;6.85;5.28;;;30.00;97.90;;;;;;5052790;28;20494;-95
2022/08/25 07:47:20;;;;;;;6.43;5.80;;;30.80;97.30;;;;;;5055932;28;20050;-96
2022/08/25 07:49:52;;;;;;;6.70;5.68;;;30.70;97.50;;;;;;5051594;28;20086;-95
2022/08/25 07:52:18;;;;;;;6.45;5.40;;;31.00;96.90;;;;;;5067688;28;20105;-95
2022/08/25 07:54:49;;;;;;;5.97;5.05;;;31.10;96.80;;;;;;5052628;28;20047;-94
2022/08/25 07:57:28;;;;;;;;;;;;;;;;;;;;;
2022/08/25 08:00:00;;;;;;;5.75;5.13;;;30.30;96.60;;;;;;5091908;27;20042;-94
2022/08/25 08:02:35;;;;;;;7.80;5.05;;;31.30;96.90;;;;;;5088576;27;20060;-94
2022/08/25 08:05:04;;;;;;;6.90;5.00;;;31.20;96.30;;;;;;5051593;28;20047;-93
2022/08/25 08:07:36;;;;;;;6.90;5.10;;;31.70;96.30;;;;;;5067661;28;20066;-94
2022/08/25 08:10:08;;;;;;;6.07;5.25;;;31.50;96.60;;;;;;5048761;28;20047;-94
2022/08/25 08:12:36;;;;;;;6.20;5.60;;;31.80;96.00;;;;;;5047736;28;20112;-94
2022/08/25 08:15:05;;;;;;;7.43;5.38;;;31.70;96.20;;;;;;5082137;28;20051;-92
2022/08/25 08:17:31;;;;;;;10.73;6.00;;;31.30;96.60;;;;;;5049579;28;20044;-93
2022/08/25 08:20:05;;;;;;;7.47;5.70;;;31.00;96.70;;;;;;5050344;28;20043;-94
2022/08/25 08:22:33;;;;;;;9.23;5.20;;;31.60;96.60;;;;;;5052403;28;20075;-94
2022/08/25 08:25:02;;;;;;;9.07;6.15;;;31.70;96.50;;;;;;5066853;28;20086;-94
2022/08/25 08:27:28;;;;;;;9.15;5.55;;;32.10;96.50;;;;;;5098899;28;20049;-94
2022/08/25 08:29:59;;;;;;;5.72;5.15;;;31.90;96.40;;;;;;5062902;28;20491;-94
2022/08/25 08:32:33;;;;;;;5.82;5.22;;;31.80;96.40;;;;;;5048563;28;20142;-95
2022/08/25 08:35:18;;;;;;;7.63;5.35;;;32.20;95.70;;;;;;5049449;28;20103;-93
2022/08/25 08:37:49;;;;;;;8.98;5.47;;;32.00;95.80;;;;;;5052629;28;20048;-94
2022/08/25 08:40:27;;;;;;;8.80;5.20;;;31.60;96.00;;;;;;5064365;28;20591;-95
2022/08/25 08:43:09;;;;;;;8.05;4.80;;;31.40;95.90;;;;;;5080344;28;20457;-94
2022/08/25 08:45:42;;;;;;;5.68;4.10;;;32.30;95.30;;;;;;5053963;28;20075;-95
2022/08/25 08:48:31;;;;;;;7.43;4.47;;;32.80;95.50;;;;;;5051749;28;20052;-94
2022/08/25 08:51:23;;;;;;;7.07;4.40;;;32.70;95.50;;;;;;5080606;28;20491;-94
2022/08/25 08:53:54;;;;;;;6.38;3.83;;;33.00;94.90;;;;;;5049455;28;20056;-95
2022/08/25 08:56:39;;;;;;;6.75;4.75;;;33.40;94.40;;;;;;5064539;28;20039;-94
2022/08/25 08:59:12;;;;;;;7.28;4.93;;;33.00;95.10;;;;;;5064903;28;20140;-94
2022/08/25 09:01:55;;;;;;;5.90;4.05;;;33.10;95.00;;;;;;5067383;28;20073;-94
2022/08/25 09:04:43;;;;;;;7.47;4.17;;;33.40;94.80;;;;;;5066985;28;20087;-94
2022/08/25 09:07:19;;;;;;;5.00;4.50;;;33.70;93.90;;;;;;5080818;28;20100;-95
2022/08/25 09:09:45;;;;;;;5.53;4.70;;;33.80;94.30;;;;;;5046048;28;20047;-95
2022/08/25 09:12:22;;;;;;;4.85;3.75;;;33.60;94.20;;;;;;5045519;28;20508;-95
2022/08/25 09:15:10;;;;;;;6.75;4.20;;;33.60;93.70;;;;;;5079782;28;20055;-94
2022/08/25 09:18:07;;;;;;;4.53;4.07;;;33.70;94.00;;;;;;5096144;28;20047;-94
2022/08/25 09:20:45;;;;;;;8.00;4.03;;;33.60;94.10;;;;;;5083976;28;20555;-95
2022/08/25 09:23:51;;;;;;;4.43;3.67;;;33.90;93.80;;;;;;5085662;28;20093;-94
2022/08/25 09:26:37;;;;;;;5.60;3.60;;;33.80;93.70;;;;;;5097342;28;20048;-93
2022/08/25 09:29:08;;;;;;;7.47;4.20;;;33.60;93.60;;;;;;5100307;28;20055;-93
2022/08/25 09:31:37;;;;;;;4.63;3.83;;;33.20;93.90;;;;;;5082237;28;20087;-93
2022/08/25 09:34:05;;;;;;;7.50;3.60;;;33.80;93.40;;;;;;5082095;28;20049;-93
2022/08/25 09:36:32;;;;;;;3.65;3.35;;;33.80;93.70;;;;;;5062527;28;20078;-92
2022/08/25 09:38:58;;;;;;;3.67;3.35;;;34.00;93.60;;;;;;5051069;28;20040;-94
2022/08/25 09:41:55;;;;;;;4.93;3.65;;;34.30;93.10;;;;;;5064360;28;20430;-93
2022/08/25 09:44:32;;;;;;;6.93;3.13;;;34.10;92.60;;;;;;5044072;28;20420;-92
2022/08/25 09:47:06;;;;;;;5.57;3.40;;;33.90;91.80;;;;;;5079591;28;20051;-93
2022/08/25 09:49:46;;;;;;;3.40;3.10;;;34.00;92.60;;;;;;5082262;28;20048;-93
2022/08/25 09:52:31;;;;;;;5.75;3.40;;;33.90;92.10;;;;;;5048478;28;20092;-92
2022/08/25 09:55:18;;;;;;;6.55;3.33;;;33.50;92.20;;;;;;5079232;28;20115;-90
2022/08/25 09:57:48;;;;;;;6.53;3.20;;;33.10;92.20;;;;;;5083650;28;20043;-93
2022/08/25 10:00:18;;;;;;;3.90;3.60;;;33.60;92.30;;;;;;5046098;28;20112;-94
2022/08/25 10:03:02;;;;;;;3.28;2.90;;;33.90;91.90;;;;;;5080164;28;20105;-93
2022/08/25 10:05:33;;;;;;;5.47;3.75;;;34.10;91.50;;;;;;5047532;28;20130;-93
2022/08/25 10:08:02;;;;;;;4.15;2.70;;;33.60;91.80;;;;;;5047453;28;20055;-94
2022/08/25 10:10:37;;;;;;;4.07;3.20;;;33.80;91.90;;;;;;5045826;28;20046;-93
2022/08/25 10:13:03;;;;;;;5.13;3.22;;;33.80;91.70;;;;;;5063508;28;20134;-95
2022/08/25 10:15:47;;;;;;;6.28;3.13;;;34.20;91.80;;;;;;5062683;28;20130;-94
2022/08/25 10:18:27;;;;;;;5.40;3.15;;;34.40;91.40;;;;;;5063495;28;20461;-94
2022/08/25 10:21:10;;;;;;;6.07;3.55;;;34.80;91.30;;;;;;5079952;28;20087;-95
2022/08/25 10:23:37;;;;;;;;;;;34.60;91.50;;;;;;5046877;28;20056;-93
2022/08/25 10:26:10;;;;;;;3.67;3.30;;;33.90;90.70;;;;;;5079617;28;19919;-93
2022/08/25 10:29:01;;;;;;;3.25;2.75;;;34.40;91.10;;;;;;5064246;28;20143;-92
2022/08/25 10:31:50;;;;;;;5.60;3.08;;;33.90;91.00;;;;;;5062390;28;20043;-94
2022/08/25 10:34:48;;;;;;;3.58;2.90;;;33.50;90.50;;;;;;5062594;28;20409;-94
2022/08/25 10:37:48;;;;;;;3.33;3.03;;;33.40;90.90;;;;;;5097186;28;20048;-94
2022/08/25 10:40:24;;;;;;;4.40;2.83;;;33.00;90.80;;;;;;5062994;28;20522;-93
2022/08/25 10:42:55;;;;;;;4.03;2.83;;;32.70;90.90;;;;;;5061574;28;20117;-93
2022/08/25 10:45:46;;;;;;;4.45;3.15;;;33.10;90.70;;;;;;5079288;28;20043;-93
2022/08/25 10:48:51;;;;;;;4.07;3.38;;;33.00;91.10;;;;;;5051406;28;20052;-93
2022/08/25 10:51:47;;;;;;;4.78;3.10;;;32.90;90.90;;;;;;5079966;28;20074;-94
2022/08/25 10:54:19;;;;;;;6.05;3.17;;;33.30;90.50;;;;;;5049940;28;20108;-94
2022/08/25 10:57:01;;;;;;;4.57;2.80;;;33.50;90.90;;;;;;5081879;28;20063;-94
2022/08/25 10:59:40;;;;;;;4.07;3.25;;;33.40;90.70;;;;;;5068214;28;20117;-94
2022/08/25 11:02:32;;;;;;;3.72;2.92;;;33.50;91.20;;;;;;5068156;28;20048;-95
2022/08/25 11:05:16;;;;;;;5.45;3.10;;;33.80;90.60;;;;;;5083991;28;20096;-93
2022/08/25 11:07:49;;;;;;;4.43;2.65;;;33.70;90.20;;;;;;5069318;28;20390;-94
2022/08/25 11:10:43;;;;;;;4.80;2.75;;;33.80;90.10;;;;;;5050599;28;20039;-93
2022/08/25 11:13:23;;;;;;;3.08;2.67;;;33.50;90.10;;;;;;5045838;28;20040;-93
2022/08/25 11:15:55;;;;;;;4.70;2.90;;;33.20;90.30;;;;;;5050791;28;20058;-95
2022/08/25 11:18:21;;;;;;;4.63;3.28;;;32.50;90.30;;;;;;5064889;28;20050;-93
2022/08/25 11:21:08;;;;;;;4.05;2.83;;;32.00;90.80;;;;;;5065471;28;20048;-93
2022/08/25 11:23:43;;;;;;;4.18;3.63;;;31.70;91.10;;;;;;5050650;28;20482;-94
2022/08/25 11:26:11;;;;;;;4.63;3.42;;;31.50;91.30;;;;;;5083597;28;20067;-94
2022/08/25 11:29:05;;;;;;;3.83;3.00;;;31.60;91.80;;;;;;5048384;28;20393;-93
2022/08/25 11:31:40;;;;;;;7.00;3.10;;;31.30;91.30;;;;;;5065489;28;20078;-93
2022/08/25 11:34:09;;;;;;;5.13;3.20;;;31.10;91.30;;;;;;5049877;28;20047;-96
2022/08/25 11:36:36;;;;;;;4.65;2.90;;;31.40;91.40;;;;;;5051721;28;20043;-92
2022/08/25 11:39:21;;;;;;;3.90;2.83;;;31.20;91.10;;;;;;5049467;28;20039;-94
2022/08/25 11:42:14;;;;;;;6.18;3.10;;;31.50;91.40;;;;;;5066878;28;20040;-94
2022/08/25 11:45:07;;;;;;;4.05;2.90;;;31.60;90.80;;;;;;5084836;28;20111;-94
2022/08/25 11:47:55;;;;;;;3.22;2.90;;;31.70;90.40;;;;;;5069121;28;20048;-93
2022/08/25 11:50:34;;;;;;;7.45;3.10;;;31.50;90.60;;;;;;5121101;27;20028;-92
2022/08/25 11:53:17;;;;;;;4.95;3.47;;;31.60;90.80;;;;;;5088211;27;20035;-92
2022/08/25 11:55:43;;;;;;;5.90;2.90;;;31.60;90.70;;;;;;5094252;28;20048;-94
2022/08/25 11:58:27;;;;;;;8.38;3.20;;;31.60;91.10;;;;;;5099687;28;20308;-92
2022/08/25 12:00:54;;;;;;;7.70;3.30;;;31.30;90.70;;;;;;5101104;28;20050;-95
2022/08/25 12:03:34;;;;;;;3.72;2.85;;;31.50;90.40;;;;;;5051416;28;20108;-93
2022/08/25 12:06:32;;;;;;;3.00;2.80;;;31.70;90.40;;;;;;5100514;28;20050;-94
2022/08/25 12:09:09;;;;;;;3.42;3.10;;;31.50;90.20;;;;;;5065441;28;20055;-94
2022/08/25 12:11:40;;;;;;;3.10;2.80;;;31.40;90.10;;;;;;5098322;28;20063;-93
2022/08/25 12:14:21;;;;;;;6.10;3.17;;;31.20;89.90;;;;;;5081109;28;20048;-94
2022/08/25 12:16:50;;;;;;;3.72;2.92;;;31.20;90.30;;;;;;5098785;28;20054;-94
2022/08/25 12:19:33;;;;;;;3.58;3.20;;;31.20;90.50;;;;;;5084857;28;20407;-93
2022/08/25 12:22:02;;;;;;;4.90;3.20;;;31.40;90.20;;;;;;5084317;28;20054;-94
2022/08/25 12:24:45;;;;;;;4.10;2.80;;;31.50;90.60;;;;;;5098385;28;20069;-92
2022/08/25 12:27:32;;;;;;;4.47;2.65;;;31.40;90.30;;;;;;5083472;28;20047;-93
2022/08/25 12:30:09;;;;;;;3.33;3.03;;;31.30;90.40;;;;;;5100994;28;20071;-90
2022/08/25 12:33:17;;;;;;;5.10;2.92;;;31.20;90.30;;;;;;5086124;28;20077;-90
2022/08/25 12:35:54;;;;;;;5.45;3.10;;;31.20;90.50;;;;;;5002496;28;20113;-93
2022/08/25 12:38:33;;;;;;;7.38;2.90;;;31.40;90.60;;;;;;5002279;28;20054;-90
2022/08/25 12:41:09;;;;;;;6.00;2.78;;;31.60;90.20;;;;;;5068603;28;20056;-93
2022/08/25 12:43:36;;;;;;;2.65;2.45;;;31.50;90.00;;;;;;5069375;28;20060;-95
2022/08/25 12:46:26;;;;;;;4.60;3.30;;;31.40;89.60;;;;;;5067565;28;20043;-91
2022/08/25 12:48:56;;;;;;;4.15;2.70;;;31.20;90.20;;;;;;5084556;28;20097;-94
2022/08/25 12:51:31;;;;;;;4.07;3.00;;;31.10;88.50;;;;;;5085972;28;20035;-94
2022/08/25 12:54:19;;;;;;;3.78;3.30;;;31.40;89.60;;;;;;5083308;28;20057;-93
2022/08/25 12:56:56;;;;;;;5.43;3.28;;;31.30;90.60;;;;;;5103476;28;20096;-91
2022/08/25 12:59:40;;;;;;;5.40;3.58;;;31.30;90.60;;;;;;5087180;27;20626;-91
2022/08/25 13:02:39;;;;;;;5.32;3.20;;;31.30;90.70;;;;;;5075308;28;20115;-94
2022/08/25 13:05:30;;;;;;;5.07;3.10;;;31.40;90.80;;;;;;5070182;28;20581;-93
2022/08/25 13:08:21;;;;;;;3.63;3.10;;;31.70;90.70;;;;;;5091403;27;20277;-93
2022/08/25 13:10:55;;;;;;;5.22;2.92;;;31.60;90.50;;;;;;5102302;27;20039;-92
2022/08/25 13:13:47;;;;;;;3.70;3.40;;;31.70;90.00;;;;;;5102541;28;20047;-92
2022/08/25 13:16:18;;;;;;;5.28;3.30;;;31.80;90.20;;;;;;5068418;28;20054;-93
2022/08/25 13:18:44;;;;;;;6.28;3.08;;;31.70;90.30;;;;;;5068290;28;20058;-94